sensor_id;sensor_type;location;lat;lon;timestamp;P1;durP1;ratioP1;P2;durP2;ratioP2
73585;SDS011;61865;50.232;18.614;2023-02-19T00:00:45;6.68;;;2.85;;
73585;SDS011;61865;50.232;18.614;2023-02-19T00:03:07;7.35;;;3.38;;
73585;SDS011;61865;50.232;18.614;2023-02-19T00:05:31;5.90;;;3.33;;
73585;SDS011;61865;50.232;18.614;2023-02-19T00:07:55;4.65;;;2.72;;
73585;SDS011;61865;50.232;18.614;2023-02-19T00:10:18;6.22;;;3.30;;
73585;SDS011;61865;50.232;18.614;2023-02-19T00:12:40;4.93;;;2.95;;
73585;SDS011;61865;50.232;18.614;2023-02-19T00:15:02;8.82;;;3.35;;
73585;SDS011;61865;50.232;18.614;2023-02-19T00:17:24;8.73;;;4.07;;
73585;SDS011;61865;50.232;18.614;2023-02-19T00:19:46;7.05;;;3.67;;
73585;SDS011;61865;50.232;18.614;2023-02-19T00:22:09;8.88;;;4.40;;
73585;SDS011;61865;50.232;18.614;2023-02-19T00:24:31;10.18;;;4.50;;
73585;SDS011;61865;50.232;18.614;2023-02-19T00:26:53;7.88;;;4.55;;
73585;SDS011;61865;50.232;18.614;2023-02-19T00:29:16;9.02;;;4.88;;
73585;SDS011;61865;50.232;18.614;2023-02-19T00:31:39;10.10;;;5.45;;
73585;SDS011;61865;50.232;18.614;2023-02-19T00:34:02;10.18;;;5.18;;
73585;SDS011;61865;50.232;18.614;2023-02-19T00:36:26;7.65;;;5.32;;
73585;SDS011;61865;50.232;18.614;2023-02-19T00:38:50;7.45;;;4.82;;
73585;SDS011;61865;50.232;18.614;2023-02-19T00:41:13;8.93;;;5.13;;
73585;SDS011;61865;50.232;18.614;2023-02-19T00:43:45;8.35;;;6.05;;
73585;SDS011;61865;50.232;18.614;2023-02-19T00:46:08;10.88;;;5.47;;
73585;SDS011;61865;50.232;18.614;2023-02-19T00:48:30;8.15;;;5.80;;
73585;SDS011;61865;50.232;18.614;2023-02-19T00:50:52;7.25;;;5.95;;
73585;SDS011;61865;50.232;18.614;2023-02-19T00:53:14;10.70;;;6.53;;
73585;SDS011;61865;50.232;18.614;2023-02-19T00:55:37;8.57;;;6.40;;
73585;SDS011;61865;50.232;18.614;2023-02-19T00:57:59;9.30;;;6.60;;
73585;SDS011;61865;50.232;18.614;2023-02-19T01:00:21;7.95;;;5.78;;
73585;SDS011;61865;50.232;18.614;2023-02-19T01:02:43;8.15;;;5.45;;
73585;SDS011;61865;50.232;18.614;2023-02-19T01:05:05;8.63;;;5.40;;
73585;SDS011;61865;50.232;18.614;2023-02-19T01:07:27;9.18;;;4.78;;
73585;SDS011;61865;50.232;18.614;2023-02-19T01:09:49;7.72;;;4.28;;
73585;SDS011;61865;50.232;18.614;2023-02-19T01:12:12;6.40;;;4.50;;
73585;SDS011;61865;50.232;18.614;2023-02-19T01:14:34;13.98;;;5.32;;
73585;SDS011;61865;50.232;18.614;2023-02-19T01:16:56;7.22;;;4.80;;
73585;SDS011;61865;50.232;18.614;2023-02-19T01:19:18;8.50;;;4.80;;
73585;SDS011;61865;50.232;18.614;2023-02-19T01:21:40;8.48;;;4.35;;
73585;SDS011;61865;50.232;18.614;2023-02-19T01:24:02;7.32;;;4.28;;
73585;SDS011;61865;50.232;18.614;2023-02-19T01:26:25;6.68;;;4.40;;
73585;SDS011;61865;50.232;18.614;2023-02-19T01:28:50;8.35;;;5.30;;
73585;SDS011;61865;50.232;18.614;2023-02-19T01:31:13;8.13;;;4.53;;
73585;SDS011;61865;50.232;18.614;2023-02-19T01:33:36;6.72;;;4.80;;
73585;SDS011;61865;50.232;18.614;2023-02-19T01:35:58;6.43;;;4.05;;
73585;SDS011;61865;50.232;18.614;2023-02-19T01:38:20;6.50;;;3.92;;
73585;SDS011;61865;50.232;18.614;2023-02-19T01:40:42;6.65;;;3.90;;
73585;SDS011;61865;50.232;18.614;2023-02-19T01:43:04;5.97;;;3.50;;
73585;SDS011;61865;50.232;18.614;2023-02-19T01:45:32;5.88;;;3.83;;
73585;SDS011;61865;50.232;18.614;2023-02-19T01:47:57;4.75;;;3.50;;
73585;SDS011;61865;50.232;18.614;2023-02-19T01:50:24;6.30;;;4.13;;
73585;SDS011;61865;50.232;18.614;2023-02-19T01:52:49;5.63;;;3.92;;
73585;SDS011;61865;50.232;18.614;2023-02-19T01:55:11;6.18;;;4.15;;
73585;SDS011;61865;50.232;18.614;2023-02-19T01:57:36;5.97;;;4.38;;
73585;SDS011;61865;50.232;18.614;2023-02-19T02:00:02;9.30;;;4.38;;
73585;SDS011;61865;50.232;18.614;2023-02-19T02:02:28;6.20;;;4.35;;
73585;SDS011;61865;50.232;18.614;2023-02-19T02:04:50;6.22;;;4.13;;
73585;SDS011;61865;50.232;18.614;2023-02-19T02:07:12;7.95;;;4.90;;
73585;SDS011;61865;50.232;18.614;2023-02-19T02:09:48;8.82;;;5.57;;
73585;SDS011;61865;50.232;18.614;2023-02-19T02:12:34;7.55;;;4.95;;
73585;SDS011;61865;50.232;18.614;2023-02-19T02:14:56;10.27;;;6.13;;
73585;SDS011;61865;50.232;18.614;2023-02-19T02:17:19;11.77;;;6.60;;
73585;SDS011;61865;50.232;18.614;2023-02-19T02:19:55;10.73;;;7.30;;
73585;SDS011;61865;50.232;18.614;2023-02-19T02:22:33;11.80;;;8.15;;
73585;SDS011;61865;50.232;18.614;2023-02-19T02:27:55;15.85;;;9.35;;
73585;SDS011;61865;50.232;18.614;2023-02-19T02:30:37;12.85;;;8.18;;
73585;SDS011;61865;50.232;18.614;2023-02-19T02:33:06;12.77;;;7.80;;
73585;SDS011;61865;50.232;18.614;2023-02-19T02:35:38;11.93;;;7.60;;
73585;SDS011;61865;50.232;18.614;2023-02-19T02:38:05;10.88;;;6.40;;
73585;SDS011;61865;50.232;18.614;2023-02-19T02:40:29;10.82;;;6.45;;
73585;SDS011;61865;50.232;18.614;2023-02-19T02:42:51;7.53;;;4.68;;
73585;SDS011;61865;50.232;18.614;2023-02-19T02:45:27;5.78;;;4.00;;
73585;SDS011;61865;50.232;18.614;2023-02-19T02:47:57;5.55;;;3.58;;
73585;SDS011;61865;50.232;18.614;2023-02-19T02:50:21;5.05;;;3.67;;
73585;SDS011;61865;50.232;18.614;2023-02-19T02:52:46;5.30;;;3.88;;
73585;SDS011;61865;50.232;18.614;2023-02-19T02:55:29;8.50;;;3.10;;
73585;SDS011;61865;50.232;18.614;2023-02-19T02:57:54;4.65;;;3.35;;
73585;SDS011;61865;50.232;18.614;2023-02-19T03:00:16;4.78;;;3.00;;
73585;SDS011;61865;50.232;18.614;2023-02-19T03:02:39;5.18;;;3.13;;
73585;SDS011;61865;50.232;18.614;2023-02-19T03:05:05;4.78;;;3.20;;
73585;SDS011;61865;50.232;18.614;2023-02-19T03:07:48;4.60;;;3.05;;
73585;SDS011;61865;50.232;18.614;2023-02-19T03:10:17;4.82;;;3.53;;
73585;SDS011;61865;50.232;18.614;2023-02-19T03:12:43;4.28;;;3.15;;
73585;SDS011;61865;50.232;18.614;2023-02-19T03:15:23;10.27;;;3.75;;
73585;SDS011;61865;50.232;18.614;2023-02-19T03:18:08;5.10;;;3.28;;
73585;SDS011;61865;50.232;18.614;2023-02-19T03:20:54;4.88;;;3.38;;
73585;SDS011;61865;50.232;18.614;2023-02-19T03:23:18;7.72;;;3.95;;
73585;SDS011;61865;50.232;18.614;2023-02-19T03:26:03;6.90;;;5.00;;
73585;SDS011;61865;50.232;18.614;2023-02-19T03:28:25;8.75;;;6.10;;
73585;SDS011;61865;50.232;18.614;2023-02-19T03:31:06;7.97;;;5.68;;
73585;SDS011;61865;50.232;18.614;2023-02-19T03:33:30;9.68;;;6.72;;
73585;SDS011;61865;50.232;18.614;2023-02-19T03:35:54;8.18;;;6.32;;
73585;SDS011;61865;50.232;18.614;2023-02-19T03:38:19;7.32;;;5.78;;
73585;SDS011;61865;50.232;18.614;2023-02-19T03:40:48;8.35;;;5.35;;
73585;SDS011;61865;50.232;18.614;2023-02-19T03:43:17;6.93;;;4.97;;
73585;SDS011;61865;50.232;18.614;2023-02-19T03:45:43;8.90;;;5.50;;
73585;SDS011;61865;50.232;18.614;2023-02-19T03:48:21;6.82;;;4.72;;
73585;SDS011;61865;50.232;18.614;2023-02-19T03:50:48;7.82;;;6.40;;
73585;SDS011;61865;50.232;18.614;2023-02-19T03:53:21;7.18;;;5.28;;
73585;SDS011;61865;50.232;18.614;2023-02-19T03:55:49;6.90;;;4.72;;
73585;SDS011;61865;50.232;18.614;2023-02-19T03:58:19;7.05;;;5.15;;
73585;SDS011;61865;50.232;18.614;2023-02-19T04:00:48;6.63;;;4.53;;
73585;SDS011;61865;50.232;18.614;2023-02-19T04:03:16;6.93;;;4.25;;
73585;SDS011;61865;50.232;18.614;2023-02-19T04:05:45;5.70;;;4.63;;
73585;SDS011;61865;50.232;18.614;2023-02-19T04:08:12;7.75;;;4.97;;
73585;SDS011;61865;50.232;18.614;2023-02-19T04:10:38;6.47;;;4.50;;
73585;SDS011;61865;50.232;18.614;2023-02-19T04:13:01;6.88;;;4.47;;
73585;SDS011;61865;50.232;18.614;2023-02-19T04:15:28;6.47;;;4.45;;
73585;SDS011;61865;50.232;18.614;2023-02-19T04:17:53;7.53;;;4.25;;
73585;SDS011;61865;50.232;18.614;2023-02-19T04:20:16;5.47;;;4.47;;
73585;SDS011;61865;50.232;18.614;2023-02-19T04:22:39;6.30;;;4.43;;
73585;SDS011;61865;50.232;18.614;2023-02-19T04:25:02;6.95;;;4.93;;
73585;SDS011;61865;50.232;18.614;2023-02-19T04:27:26;6.38;;;4.70;;
73585;SDS011;61865;50.232;18.614;2023-02-19T04:29:48;7.43;;;4.75;;
73585;SDS011;61865;50.232;18.614;2023-02-19T04:32:10;6.80;;;5.03;;
73585;SDS011;61865;50.232;18.614;2023-02-19T04:34:32;5.68;;;4.53;;
73585;SDS011;61865;50.232;18.614;2023-02-19T04:36:54;8.13;;;5.60;;
73585;SDS011;61865;50.232;18.614;2023-02-19T04:39:16;6.90;;;4.47;;
73585;SDS011;61865;50.232;18.614;2023-02-19T04:41:38;8.05;;;4.95;;
73585;SDS011;61865;50.232;18.614;2023-02-19T04:44:01;10.73;;;5.93;;
73585;SDS011;61865;50.232;18.614;2023-02-19T04:46:23;5.38;;;4.18;;
73585;SDS011;61865;50.232;18.614;2023-02-19T04:48:45;8.82;;;4.00;;
73585;SDS011;61865;50.232;18.614;2023-02-19T04:51:07;5.82;;;4.15;;
73585;SDS011;61865;50.232;18.614;2023-02-19T04:53:29;6.05;;;3.58;;
73585;SDS011;61865;50.232;18.614;2023-02-19T04:55:51;5.50;;;3.88;;
73585;SDS011;61865;50.232;18.614;2023-02-19T04:58:13;5.55;;;3.33;;
73585;SDS011;61865;50.232;18.614;2023-02-19T05:00:36;4.90;;;3.03;;
73585;SDS011;61865;50.232;18.614;2023-02-19T05:02:58;4.07;;;3.13;;
73585;SDS011;61865;50.232;18.614;2023-02-19T05:05:21;4.72;;;2.95;;
73585;SDS011;61865;50.232;18.614;2023-02-19T05:07:42;4.50;;;3.30;;
73585;SDS011;61865;50.232;18.614;2023-02-19T05:10:05;5.32;;;3.67;;
73585;SDS011;61865;50.232;18.614;2023-02-19T05:12:28;7.82;;;3.10;;
73585;SDS011;61865;50.232;18.614;2023-02-19T05:14:50;4.85;;;3.55;;
73585;SDS011;61865;50.232;18.614;2023-02-19T05:17:14;5.80;;;3.25;;
73585;SDS011;61865;50.232;18.614;2023-02-19T05:19:35;4.28;;;3.00;;
73585;SDS011;61865;50.232;18.614;2023-02-19T05:21:57;4.68;;;3.00;;
73585;SDS011;61865;50.232;18.614;2023-02-19T05:24:19;4.90;;;3.10;;
73585;SDS011;61865;50.232;18.614;2023-02-19T05:26:43;4.60;;;3.42;;
73585;SDS011;61865;50.232;18.614;2023-02-19T05:29:07;4.65;;;3.22;;
73585;SDS011;61865;50.232;18.614;2023-02-19T05:31:29;4.72;;;3.25;;
73585;SDS011;61865;50.232;18.614;2023-02-19T05:33:55;5.25;;;3.55;;
73585;SDS011;61865;50.232;18.614;2023-02-19T05:36:18;8.68;;;6.03;;
73585;SDS011;61865;50.232;18.614;2023-02-19T05:38:41;10.45;;;5.60;;
73585;SDS011;61865;50.232;18.614;2023-02-19T05:41:07;10.63;;;7.00;;
73585;SDS011;61865;50.232;18.614;2023-02-19T05:43:30;10.30;;;7.50;;
73585;SDS011;61865;50.232;18.614;2023-02-19T05:45:51;16.80;;;10.10;;
73585;SDS011;61865;50.232;18.614;2023-02-19T05:48:17;20.90;;;11.40;;
73585;SDS011;61865;50.232;18.614;2023-02-19T05:50:41;17.45;;;8.95;;
73585;SDS011;61865;50.232;18.614;2023-02-19T05:53:03;10.43;;;6.40;;
73585;SDS011;61865;50.232;18.614;2023-02-19T05:55:25;8.35;;;5.75;;
73585;SDS011;61865;50.232;18.614;2023-02-19T05:57:47;14.82;;;8.82;;
73585;SDS011;61865;50.232;18.614;2023-02-19T06:00:10;20.13;;;9.43;;
73585;SDS011;61865;50.232;18.614;2023-02-19T06:02:33;16.77;;;8.63;;
73585;SDS011;61865;50.232;18.614;2023-02-19T06:04:56;10.15;;;6.95;;
73585;SDS011;61865;50.232;18.614;2023-02-19T06:07:19;10.40;;;6.95;;
73585;SDS011;61865;50.232;18.614;2023-02-19T06:09:41;21.67;;;11.55;;
73585;SDS011;61865;50.232;18.614;2023-02-19T06:12:03;14.07;;;8.95;;
73585;SDS011;61865;50.232;18.614;2023-02-19T06:14:27;9.48;;;6.80;;
73585;SDS011;61865;50.232;18.614;2023-02-19T06:16:49;13.63;;;9.27;;
73585;SDS011;61865;50.232;18.614;2023-02-19T06:19:11;9.73;;;6.53;;
73585;SDS011;61865;50.232;18.614;2023-02-19T06:21:32;27.90;;;16.17;;
73585;SDS011;61865;50.232;18.614;2023-02-19T06:23:56;35.05;;;18.35;;
73585;SDS011;61865;50.232;18.614;2023-02-19T06:26:18;29.60;;;15.88;;
73585;SDS011;61865;50.232;18.614;2023-02-19T06:28:42;51.08;;;20.60;;
73585;SDS011;61865;50.232;18.614;2023-02-19T06:31:05;64.82;;;25.23;;
73585;SDS011;61865;50.232;18.614;2023-02-19T06:33:28;46.72;;;20.23;;
73585;SDS011;61865;50.232;18.614;2023-02-19T06:35:50;58.78;;;21.15;;
73585;SDS011;61865;50.232;18.614;2023-02-19T06:38:12;72.28;;;21.52;;
73585;SDS011;61865;50.232;18.614;2023-02-19T06:40:35;42.38;;;16.27;;
73585;SDS011;61865;50.232;18.614;2023-02-19T06:42:57;26.35;;;12.55;;
73585;SDS011;61865;50.232;18.614;2023-02-19T06:45:19;38.55;;;18.27;;
73585;SDS011;61865;50.232;18.614;2023-02-19T06:47:41;41.78;;;22.60;;
73585;SDS011;61865;50.232;18.614;2023-02-19T06:50:03;30.25;;;21.02;;
73585;SDS011;61865;50.232;18.614;2023-02-19T06:52:25;14.80;;;11.38;;
73585;SDS011;61865;50.232;18.614;2023-02-19T06:54:48;14.65;;;10.27;;
73585;SDS011;61865;50.232;18.614;2023-02-19T06:57:11;16.38;;;11.27;;
73585;SDS011;61865;50.232;18.614;2023-02-19T06:59:33;14.23;;;9.85;;
73585;SDS011;61865;50.232;18.614;2023-02-19T07:01:55;25.08;;;13.85;;
73585;SDS011;61865;50.232;18.614;2023-02-19T07:04:17;15.68;;;10.20;;
73585;SDS011;61865;50.232;18.614;2023-02-19T07:06:39;11.15;;;8.55;;
73585;SDS011;61865;50.232;18.614;2023-02-19T07:09:01;19.15;;;10.77;;
73585;SDS011;61865;50.232;18.614;2023-02-19T07:11:24;24.88;;;13.07;;
73585;SDS011;61865;50.232;18.614;2023-02-19T07:13:48;23.48;;;12.80;;
73585;SDS011;61865;50.232;18.614;2023-02-19T07:16:14;20.73;;;11.65;;
73585;SDS011;61865;50.232;18.614;2023-02-19T07:18:37;24.73;;;12.40;;
73585;SDS011;61865;50.232;18.614;2023-02-19T07:21:01;15.20;;;10.35;;
73585;SDS011;61865;50.232;18.614;2023-02-19T07:23:23;18.63;;;10.95;;
73585;SDS011;61865;50.232;18.614;2023-02-19T07:25:45;25.85;;;12.18;;
73585;SDS011;61865;50.232;18.614;2023-02-19T07:28:07;22.88;;;12.43;;
73585;SDS011;61865;50.232;18.614;2023-02-19T07:30:30;20.02;;;12.27;;
73585;SDS011;61865;50.232;18.614;2023-02-19T07:32:52;20.67;;;13.15;;
73585;SDS011;61865;50.232;18.614;2023-02-19T07:35:14;19.98;;;11.05;;
73585;SDS011;61865;50.232;18.614;2023-02-19T07:37:36;14.15;;;9.57;;
73585;SDS011;61865;50.232;18.614;2023-02-19T07:39:58;14.48;;;10.05;;
73585;SDS011;61865;50.232;18.614;2023-02-19T07:42:20;10.68;;;8.73;;
73585;SDS011;61865;50.232;18.614;2023-02-19T07:44:42;14.82;;;8.65;;
73585;SDS011;61865;50.232;18.614;2023-02-19T07:47:05;10.75;;;7.38;;
73585;SDS011;61865;50.232;18.614;2023-02-19T07:49:27;13.05;;;9.00;;
73585;SDS011;61865;50.232;18.614;2023-02-19T07:51:49;10.60;;;7.68;;
73585;SDS011;61865;50.232;18.614;2023-02-19T07:54:11;12.63;;;8.43;;
73585;SDS011;61865;50.232;18.614;2023-02-19T07:56:33;10.30;;;6.82;;
73585;SDS011;61865;50.232;18.614;2023-02-19T07:58:54;15.10;;;9.18;;
73585;SDS011;61865;50.232;18.614;2023-02-19T08:01:17;13.70;;;8.45;;
73585;SDS011;61865;50.232;18.614;2023-02-19T08:04:02;14.32;;;8.05;;
73585;SDS011;61865;50.232;18.614;2023-02-19T08:06:23;14.00;;;7.45;;
73585;SDS011;61865;50.232;18.614;2023-02-19T08:08:45;11.75;;;8.57;;
73585;SDS011;61865;50.232;18.614;2023-02-19T08:11:08;12.45;;;7.93;;
73585;SDS011;61865;50.232;18.614;2023-02-19T08:13:48;13.70;;;8.07;;
73585;SDS011;61865;50.232;18.614;2023-02-19T08:16:11;13.25;;;6.57;;
73585;SDS011;61865;50.232;18.614;2023-02-19T08:18:36;8.48;;;5.68;;
73585;SDS011;61865;50.232;18.614;2023-02-19T08:20:59;8.13;;;5.28;;
73585;SDS011;61865;50.232;18.614;2023-02-19T08:23:22;9.27;;;5.78;;
73585;SDS011;61865;50.232;18.614;2023-02-19T08:25:44;8.93;;;5.80;;
73585;SDS011;61865;50.232;18.614;2023-02-19T08:28:07;9.00;;;6.15;;
73585;SDS011;61865;50.232;18.614;2023-02-19T08:30:30;12.10;;;5.93;;
73585;SDS011;61865;50.232;18.614;2023-02-19T08:32:53;12.25;;;6.78;;
73585;SDS011;61865;50.232;18.614;2023-02-19T08:35:16;11.55;;;6.05;;
73585;SDS011;61865;50.232;18.614;2023-02-19T08:37:39;13.52;;;5.20;;
73585;SDS011;61865;50.232;18.614;2023-02-19T08:40:03;11.15;;;6.10;;
73585;SDS011;61865;50.232;18.614;2023-02-19T08:42:27;13.52;;;8.25;;
73585;SDS011;61865;50.232;18.614;2023-02-19T08:44:49;17.42;;;10.00;;
73585;SDS011;61865;50.232;18.614;2023-02-19T08:47:11;10.77;;;4.95;;
73585;SDS011;61865;50.232;18.614;2023-02-19T08:49:34;9.65;;;5.00;;
73585;SDS011;61865;50.232;18.614;2023-02-19T08:51:55;8.23;;;5.10;;
73585;SDS011;61865;50.232;18.614;2023-02-19T08:54:19;12.93;;;5.20;;
73585;SDS011;61865;50.232;18.614;2023-02-19T08:56:41;10.10;;;5.10;;
73585;SDS011;61865;50.232;18.614;2023-02-19T08:59:03;10.82;;;6.38;;
73585;SDS011;61865;50.232;18.614;2023-02-19T09:01:24;9.60;;;4.82;;
73585;SDS011;61865;50.232;18.614;2023-02-19T09:03:46;17.50;;;7.10;;
73585;SDS011;61865;50.232;18.614;2023-02-19T09:06:09;16.30;;;6.72;;
73585;SDS011;61865;50.232;18.614;2023-02-19T09:08:34;17.83;;;8.15;;
73585;SDS011;61865;50.232;18.614;2023-02-19T09:10:58;7.93;;;5.13;;
73585;SDS011;61865;50.232;18.614;2023-02-19T09:13:22;15.80;;;7.65;;
73585;SDS011;61865;50.232;18.614;2023-02-19T09:15:44;12.75;;;5.65;;
73585;SDS011;61865;50.232;18.614;2023-02-19T09:18:06;10.27;;;6.25;;
73585;SDS011;61865;50.232;18.614;2023-02-19T09:20:28;7.43;;;5.30;;
73585;SDS011;61865;50.232;18.614;2023-02-19T09:22:51;9.77;;;6.65;;
73585;SDS011;61865;50.232;18.614;2023-02-19T09:25:17;8.90;;;4.95;;
73585;SDS011;61865;50.232;18.614;2023-02-19T09:27:40;9.20;;;5.47;;
73585;SDS011;61865;50.232;18.614;2023-02-19T09:30:02;12.20;;;5.78;;
73585;SDS011;61865;50.232;18.614;2023-02-19T09:32:25;13.70;;;5.05;;
73585;SDS011;61865;50.232;18.614;2023-02-19T09:34:47;10.82;;;7.20;;
73585;SDS011;61865;50.232;18.614;2023-02-19T09:37:10;10.18;;;7.45;;
73585;SDS011;61865;50.232;18.614;2023-02-19T09:39:32;9.05;;;6.97;;
73585;SDS011;61865;50.232;18.614;2023-02-19T09:41:55;8.70;;;6.22;;
73585;SDS011;61865;50.232;18.614;2023-02-19T09:44:22;7.60;;;5.40;;
73585;SDS011;61865;50.232;18.614;2023-02-19T09:46:49;8.32;;;5.70;;
73585;SDS011;61865;50.232;18.614;2023-02-19T09:49:13;10.27;;;5.88;;
73585;SDS011;61865;50.232;18.614;2023-02-19T09:51:38;8.90;;;5.10;;
73585;SDS011;61865;50.232;18.614;2023-02-19T09:54:05;7.85;;;5.10;;
73585;SDS011;61865;50.232;18.614;2023-02-19T09:56:32;6.03;;;4.03;;
73585;SDS011;61865;50.232;18.614;2023-02-19T09:58:55;4.68;;;3.17;;
73585;SDS011;61865;50.232;18.614;2023-02-19T10:01:20;6.65;;;4.40;;
73585;SDS011;61865;50.232;18.614;2023-02-19T10:03:47;7.18;;;4.30;;
73585;SDS011;61865;50.232;18.614;2023-02-19T10:06:10;12.73;;;4.60;;
73585;SDS011;61865;50.232;18.614;2023-02-19T10:08:39;12.20;;;5.00;;
73585;SDS011;61865;50.232;18.614;2023-02-19T10:11:02;9.55;;;5.38;;
73585;SDS011;61865;50.232;18.614;2023-02-19T10:13:27;8.35;;;4.25;;
73585;SDS011;61865;50.232;18.614;2023-02-19T10:15:52;8.82;;;4.75;;
73585;SDS011;61865;50.232;18.614;2023-02-19T10:18:19;8.82;;;5.30;;
73585;SDS011;61865;50.232;18.614;2023-02-19T10:20:43;8.68;;;4.88;;
73585;SDS011;61865;50.232;18.614;2023-02-19T10:23:06;5.72;;;3.05;;
73585;SDS011;61865;50.232;18.614;2023-02-19T10:25:32;5.20;;;3.00;;
73585;SDS011;61865;50.232;18.614;2023-02-19T10:27:56;7.47;;;3.90;;
73585;SDS011;61865;50.232;18.614;2023-02-19T10:30:19;7.45;;;4.97;;
73585;SDS011;61865;50.232;18.614;2023-02-19T10:32:45;18.20;;;6.13;;
73585;SDS011;61865;50.232;18.614;2023-02-19T10:35:21;15.52;;;6.60;;
73585;SDS011;61865;50.232;18.614;2023-02-19T10:37:43;7.72;;;4.88;;
73585;SDS011;61865;50.232;18.614;2023-02-19T10:40:10;5.63;;;4.22;;
73585;SDS011;61865;50.232;18.614;2023-02-19T10:42:35;6.45;;;4.90;;
73585;SDS011;61865;50.232;18.614;2023-02-19T10:45:11;6.65;;;4.47;;
73585;SDS011;61865;50.232;18.614;2023-02-19T10:47:39;8.02;;;4.30;;
73585;SDS011;61865;50.232;18.614;2023-02-19T10:50:15;6.20;;;4.05;;
73585;SDS011;61865;50.232;18.614;2023-02-19T10:52:43;9.35;;;6.05;;
73585;SDS011;61865;50.232;18.614;2023-02-19T10:55:14;10.43;;;5.60;;
73585;SDS011;61865;50.232;18.614;2023-02-19T10:57:44;8.48;;;4.75;;
73585;SDS011;61865;50.232;18.614;2023-02-19T11:00:18;5.68;;;4.03;;
73585;SDS011;61865;50.232;18.614;2023-02-19T11:02:43;5.55;;;4.13;;
73585;SDS011;61865;50.232;18.614;2023-02-19T11:05:15;9.25;;;5.45;;
73585;SDS011;61865;50.232;18.614;2023-02-19T11:07:42;6.28;;;3.38;;
73585;SDS011;61865;50.232;18.614;2023-02-19T11:10:17;4.18;;;2.63;;
73585;SDS011;61865;50.232;18.614;2023-02-19T11:12:44;2.78;;;2.10;;
73585;SDS011;61865;50.232;18.614;2023-02-19T11:15:12;2.63;;;2.10;;
73585;SDS011;61865;50.232;18.614;2023-02-19T11:17:41;6.45;;;2.50;;
73585;SDS011;61865;50.232;18.614;2023-02-19T11:20:04;3.25;;;2.50;;
73585;SDS011;61865;50.232;18.614;2023-02-19T11:22:30;4.78;;;3.05;;
73585;SDS011;61865;50.232;18.614;2023-02-19T11:24:55;5.40;;;2.90;;
73585;SDS011;61865;50.232;18.614;2023-02-19T11:27:22;7.43;;;4.15;;
73585;SDS011;61865;50.232;18.614;2023-02-19T11:29:45;6.38;;;2.80;;
73585;SDS011;61865;50.232;18.614;2023-02-19T11:32:24;4.47;;;2.85;;
73585;SDS011;61865;50.232;18.614;2023-02-19T11:34:48;5.32;;;3.28;;
73585;SDS011;61865;50.232;18.614;2023-02-19T11:37:11;4.00;;;2.45;;
73585;SDS011;61865;50.232;18.614;2023-02-19T11:39:34;4.82;;;2.72;;
73585;SDS011;61865;50.232;18.614;2023-02-19T11:42:05;6.40;;;3.05;;
73585;SDS011;61865;50.232;18.614;2023-02-19T11:44:47;3.22;;;2.42;;
73585;SDS011;61865;50.232;18.614;2023-02-19T11:50:07;3.80;;;2.30;;
73585;SDS011;61865;50.232;18.614;2023-02-19T11:52:41;7.35;;;3.50;;
73585;SDS011;61865;50.232;18.614;2023-02-19T11:55:11;6.50;;;3.92;;
73585;SDS011;61865;50.232;18.614;2023-02-19T11:57:41;5.03;;;3.25;;
73585;SDS011;61865;50.232;18.614;2023-02-19T12:00:14;6.90;;;3.63;;
73585;SDS011;61865;50.232;18.614;2023-02-19T12:02:45;6.25;;;3.63;;
73585;SDS011;61865;50.232;18.614;2023-02-19T12:05:30;6.05;;;3.38;;
73585;SDS011;61865;50.232;18.614;2023-02-19T12:08:04;5.90;;;3.70;;
73585;SDS011;61865;50.232;18.614;2023-02-19T12:10:43;7.93;;;4.30;;
73585;SDS011;61865;50.232;18.614;2023-02-19T12:13:17;7.22;;;4.07;;
73585;SDS011;61865;50.232;18.614;2023-02-19T12:15:47;6.20;;;3.65;;
73585;SDS011;61865;50.232;18.614;2023-02-19T12:21:30;7.22;;;3.70;;
73585;SDS011;61865;50.232;18.614;2023-02-19T12:27:11;4.88;;;3.08;;
73585;SDS011;61865;50.232;18.614;2023-02-19T12:29:46;4.55;;;2.85;;
73585;SDS011;61865;50.232;18.614;2023-02-19T12:32:20;7.90;;;3.30;;
73585;SDS011;61865;50.232;18.614;2023-02-19T12:35:13;7.90;;;3.92;;
73585;SDS011;61865;50.232;18.614;2023-02-19T12:37:48;2.92;;;2.40;;
73585;SDS011;61865;50.232;18.614;2023-02-19T12:40:21;6.22;;;3.03;;
73585;SDS011;61865;50.232;18.614;2023-02-19T12:42:58;4.85;;;3.00;;
73585;SDS011;61865;50.232;18.614;2023-02-19T12:45:32;2.55;;;2.10;;
73585;SDS011;61865;50.232;18.614;2023-02-19T12:48:00;3.42;;;2.22;;
73585;SDS011;61865;50.232;18.614;2023-02-19T12:50:26;3.58;;;2.20;;
73585;SDS011;61865;50.232;18.614;2023-02-19T12:52:49;3.42;;;2.30;;
73585;SDS011;61865;50.232;18.614;2023-02-19T12:55:18;5.13;;;2.20;;
73585;SDS011;61865;50.232;18.614;2023-02-19T12:57:42;4.72;;;2.65;;
73585;SDS011;61865;50.232;18.614;2023-02-19T13:00:08;5.15;;;3.05;;
73585;SDS011;61865;50.232;18.614;2023-02-19T13:02:47;6.05;;;2.90;;
73585;SDS011;61865;50.232;18.614;2023-02-19T13:05:14;9.70;;;3.40;;
73585;SDS011;61865;50.232;18.614;2023-02-19T13:07:43;4.85;;;2.80;;
73585;SDS011;61865;50.232;18.614;2023-02-19T13:10:18;8.30;;;3.65;;
73585;SDS011;61865;50.232;18.614;2023-02-19T13:12:46;7.80;;;3.17;;
73585;SDS011;61865;50.232;18.614;2023-02-19T13:15:13;8.38;;;3.70;;
73585;SDS011;61865;50.232;18.614;2023-02-19T13:17:37;6.40;;;3.25;;
73585;SDS011;61865;50.232;18.614;2023-02-19T13:20:13;10.90;;;3.70;;
73585;SDS011;61865;50.232;18.614;2023-02-19T13:22:41;8.77;;;3.97;;
73585;SDS011;61865;50.232;18.614;2023-02-19T13:25:29;11.45;;;4.40;;
73585;SDS011;61865;50.232;18.614;2023-02-19T13:28:20;6.63;;;3.20;;
73585;SDS011;61865;50.232;18.614;2023-02-19T13:31:10;5.38;;;2.95;;
73585;SDS011;61865;50.232;18.614;2023-02-19T13:33:46;6.72;;;3.38;;
73585;SDS011;61865;50.232;18.614;2023-02-19T13:36:21;8.55;;;3.65;;
73585;SDS011;61865;50.232;18.614;2023-02-19T13:38:46;7.38;;;3.88;;
73585;SDS011;61865;50.232;18.614;2023-02-19T13:41:19;6.40;;;3.40;;
73585;SDS011;61865;50.232;18.614;2023-02-19T13:43:52;7.47;;;3.88;;
73585;SDS011;61865;50.232;18.614;2023-02-19T13:46:17;6.28;;;3.28;;
73585;SDS011;61865;50.232;18.614;2023-02-19T13:48:40;4.63;;;3.15;;
73585;SDS011;61865;50.232;18.614;2023-02-19T13:54:12;7.43;;;3.55;;
73585;SDS011;61865;50.232;18.614;2023-02-19T13:56:41;7.03;;;3.42;;
73585;SDS011;61865;50.232;18.614;2023-02-19T13:59:20;7.97;;;3.60;;
73585;SDS011;61865;50.232;18.614;2023-02-19T14:04:40;6.15;;;3.13;;
73585;SDS011;61865;50.232;18.614;2023-02-19T14:16:30;10.18;;;3.28;;
73585;SDS011;61865;50.232;18.614;2023-02-19T14:19:12;9.55;;;3.65;;
73585;SDS011;61865;50.232;18.614;2023-02-19T14:21:35;7.30;;;3.60;;
73585;SDS011;61865;50.232;18.614;2023-02-19T14:23:58;6.45;;;3.28;;
73585;SDS011;61865;50.232;18.614;2023-02-19T14:26:20;5.35;;;2.92;;
73585;SDS011;61865;50.232;18.614;2023-02-19T14:28:44;8.38;;;3.55;;
73585;SDS011;61865;50.232;18.614;2023-02-19T14:31:20;5.53;;;3.35;;
73585;SDS011;61865;50.232;18.614;2023-02-19T14:33:47;7.72;;;3.30;;
73585;SDS011;61865;50.232;18.614;2023-02-19T14:36:13;7.25;;;3.17;;
73585;SDS011;61865;50.232;18.614;2023-02-19T14:38:43;7.22;;;3.47;;
73585;SDS011;61865;50.232;18.614;2023-02-19T14:41:08;8.60;;;3.95;;
73585;SDS011;61865;50.232;18.614;2023-02-19T14:43:33;7.05;;;3.42;;
73585;SDS011;61865;50.232;18.614;2023-02-19T14:45:58;5.20;;;3.10;;
73585;SDS011;61865;50.232;18.614;2023-02-19T14:48:25;5.13;;;2.95;;